createdAt,value
2022-12-27T00:02:27.442Z,14.40
2022-12-27T00:06:29.636Z,14.40
2022-12-27T00:10:31.281Z,14.40
2022-12-27T00:14:33.016Z,14.40
2022-12-27T00:18:34.994Z,14.40
2022-12-27T00:22:36.599Z,14.40
2022-12-27T00:26:40.002Z,14.40
2022-12-27T00:30:41.618Z,14.40
2022-12-27T00:34:43.203Z,14.40
2022-12-27T00:38:45.540Z,14.40
2022-12-27T00:42:47.434Z,14.40
2022-12-27T00:46:49.086Z,14.30
2022-12-27T00:50:56.565Z,14.40
2022-12-27T00:54:58.217Z,14.40
2022-12-27T00:59:02.821Z,14.40
2022-12-27T01:03:04.501Z,14.30
2022-12-27T01:07:06.078Z,14.40
2022-12-27T01:11:08.779Z,14.40
2022-12-27T01:15:10.814Z,14.30
2022-12-27T01:19:12.945Z,14.30
2022-12-27T01:23:14.713Z,14.40
2022-12-27T01:27:16.882Z,14.30
2022-12-27T01:31:23.258Z,14.30
2022-12-27T01:35:25.050Z,14.30
2022-12-27T01:39:26.847Z,14.30
2022-12-27T01:43:38.761Z,14.30
2022-12-27T01:48:12.113Z,14.30
2022-12-27T01:52:14.563Z,14.30
2022-12-27T01:56:26.474Z,14.30
2022-12-27T02:00:28.976Z,14.30
2022-12-27T02:04:32.070Z,14.30
2022-12-27T02:09:02.148Z,14.30
2022-12-27T02:13:06.553Z,14.30
2022-12-27T02:17:14.845Z,14.30
2022-12-27T02:21:49.876Z,14.30
2022-12-27T02:25:57.260Z,14.30
2022-12-27T02:30:03.070Z,14.30
2022-12-27T02:34:09.960Z,14.30
2022-12-27T02:38:32.832Z,14.30
2022-12-27T02:42:53.117Z,14.30
2022-12-27T02:47:13.799Z,14.30
2022-12-27T02:51:58.223Z,14.30
2022-12-27T02:56:25.865Z,14.30
2022-12-27T03:00:52.304Z,14.30
2022-12-27T03:05:06.752Z,14.30
2022-12-27T03:10:01.123Z,14.30
2022-12-27T03:14:33.778Z,14.30
2022-12-27T03:18:44.013Z,14.30
2022-12-27T03:23:06.600Z,14.30
2022-12-27T03:27:18.052Z,14.30
2022-12-27T03:31:47.352Z,14.30
2022-12-27T03:36:33.618Z,14.30
2022-12-27T03:41:06.868Z,14.30
2022-12-27T03:45:09.849Z,14.30
2022-12-27T03:49:37.980Z,14.30
2022-12-27T03:53:43.814Z,14.30
2022-12-27T03:57:45.632Z,14.30
2022-12-27T04:01:47.272Z,14.30
2022-12-27T04:05:48.957Z,14.30
2022-12-27T04:10:09.297Z,14.30
2022-12-27T04:14:29.538Z,14.30
2022-12-27T04:18:50.046Z,14.30
2022-12-27T04:23:10.515Z,14.30
2022-12-27T04:27:30.842Z,14.30
2022-12-27T04:31:51.375Z,14.30
2022-12-27T04:35:52.975Z,14.30
2022-12-27T04:40:13.215Z,14.30
2022-12-27T04:44:33.806Z,14.30
2022-12-27T04:48:54.316Z,14.30
2022-12-27T04:53:31.165Z,14.30
2022-12-27T04:57:32.835Z,14.20
2022-12-27T05:01:53.234Z,14.30
2022-12-27T05:05:55.168Z,14.30
2022-12-27T05:10:17.371Z,14.30
2022-12-27T05:14:18.993Z,14.30
2022-12-27T05:18:20.628Z,14.30
2022-12-27T05:22:40.858Z,14.30
2022-12-27T05:26:42.846Z,14.30
2022-12-27T05:30:44.867Z,14.30
2022-12-27T05:34:46.764Z,14.30
2022-12-27T05:38:48.717Z,14.30
2022-12-27T05:42:50.903Z,14.30
2022-12-27T05:46:54.910Z,14.30
2022-12-27T05:50:56.613Z,14.30
2022-12-27T05:54:58.350Z,14.30
2022-12-27T05:59:01.471Z,14.30
2022-12-27T06:03:03.785Z,14.30
2022-12-27T06:07:05.511Z,14.30
2022-12-27T06:11:13.201Z,14.30
2022-12-27T06:15:14.883Z,14.30
2022-12-27T06:19:16.966Z,14.30
2022-12-27T06:23:18.552Z,14.30
2022-12-27T06:27:20.202Z,14.30
2022-12-27T06:31:22.293Z,14.30
2022-12-27T06:35:23.923Z,14.30
2022-12-27T06:39:25.537Z,14.30
2022-12-27T06:43:27.936Z,14.30
2022-12-27T06:47:29.518Z,14.30
2022-12-27T06:51:31.127Z,14.30
2022-12-27T06:55:32.728Z,14.30
2022-12-27T06:59:34.326Z,14.30
2022-12-27T07:03:36.035Z,14.30
2022-12-27T07:07:37.626Z,14.30
2022-12-27T07:11:39.183Z,14.30
2022-12-27T07:15:40.762Z,14.30
2022-12-27T07:19:42.502Z,14.30
2022-12-27T07:23:44.197Z,14.30
2022-12-27T07:27:45.774Z,14.30
2022-12-27T07:31:47.448Z,14.30
2022-12-27T07:35:49.056Z,14.30
2022-12-27T07:39:50.724Z,14.30
2022-12-27T07:43:52.862Z,14.30
2022-12-27T07:47:54.523Z,14.30
2022-12-27T07:51:56.105Z,14.30
2022-12-27T07:55:58.032Z,14.30
2022-12-27T07:59:59.672Z,14.30
2022-12-27T08:04:01.221Z,14.30
2022-12-27T08:08:03.646Z,14.30
2022-12-27T08:12:06.056Z,14.30
2022-12-27T08:16:10.385Z,14.30
2022-12-27T08:20:15.094Z,14.30
2022-12-27T08:24:16.942Z,14.30
2022-12-27T08:28:19.096Z,14.30
2022-12-27T08:32:20.707Z,14.30
2022-12-27T08:36:53.653Z,14.30
2022-12-27T08:40:45.698Z,14.30
2022-12-27T08:44:47.276Z,14.30
2022-12-27T08:48:49.575Z,14.30
2022-12-27T08:52:52.419Z,14.30
2022-12-27T08:56:54.023Z,14.30
2022-12-27T09:00:55.587Z,14.30
2022-12-27T09:04:57.148Z,14.30
2022-12-27T09:08:59.744Z,14.30
2022-12-27T09:13:01.391Z,14.30
2022-12-27T09:17:03.012Z,14.30
2022-12-27T09:21:06.513Z,14.30
2022-12-27T09:25:08.608Z,14.30
2022-12-27T09:29:10.688Z,14.30
2022-12-27T09:33:12.327Z,14.40
2022-12-27T09:37:13.996Z,14.50
2022-12-27T09:42:06.889Z,14.50
2022-12-27T09:45:46.893Z,14.60
2022-12-27T09:49:53.265Z,14.70
2022-12-27T09:54:18.842Z,14.70
2022-12-27T09:58:42.222Z,14.70
2022-12-27T10:02:45.027Z,14.70
2022-12-27T10:06:49.450Z,14.70
2022-12-27T10:11:37.236Z,14.70
2022-12-27T10:15:48.930Z,14.70
2022-12-27T10:19:57.157Z,14.70
2022-12-27T10:24:02.689Z,14.70
2022-12-27T10:28:37.244Z,14.70
2022-12-27T10:32:38.951Z,14.70
2022-12-27T10:36:41.449Z,14.70
2022-12-27T10:41:19.745Z,14.70
2022-12-27T10:45:28.998Z,14.70
2022-12-27T10:49:35.110Z,14.70
2022-12-27T10:53:38.468Z,14.70
2022-12-27T10:57:40.063Z,14.70
2022-12-27T11:01:42.277Z,14.70
2022-12-27T11:05:58.294Z,14.70
2022-12-27T11:10:20.237Z,14.70
2022-12-27T11:14:22.645Z,14.70
2022-12-27T11:18:24.561Z,14.70
2022-12-27T11:22:26.590Z,14.70
2022-12-27T11:26:33.071Z,14.60
2022-12-27T11:30:41.291Z,14.70
2022-12-27T11:34:46.755Z,14.70
2022-12-27T11:38:50.795Z,14.70
2022-12-27T11:43:03.464Z,14.70
2022-12-27T11:47:42.510Z,14.70
2022-12-27T11:52:02.232Z,14.80
2022-12-27T11:56:26.270Z,14.80
2022-12-27T12:00:37.648Z,14.80
2022-12-27T12:05:04.298Z,14.80
2022-12-27T12:09:30.147Z,14.80
2022-12-27T12:13:50.358Z,14.80
2022-12-27T12:18:08.372Z,14.80
2022-12-27T12:22:25.140Z,14.80
2022-12-27T12:26:33.243Z,14.80
2022-12-27T12:30:56.632Z,14.80
2022-12-27T12:35:20.381Z,14.80
2022-12-27T12:40:14.412Z,14.80
2022-12-27T12:44:30.185Z,14.80
2022-12-27T12:49:01.970Z,14.80
2022-12-27T12:53:30.516Z,14.80
2022-12-27T12:57:56.894Z,14.80
2022-12-27T13:02:34.967Z,14.80
2022-12-27T13:07:20.946Z,14.80
2022-12-27T13:11:52.497Z,14.80
2022-12-27T13:16:14.425Z,14.80
2022-12-27T13:20:34.982Z,14.80
2022-12-27T13:25:04.188Z,14.80
2022-12-27T13:29:45.193Z,14.80
2022-12-27T13:34:03.622Z,14.80
2022-12-27T13:38:14.731Z,14.80
2022-12-27T13:42:51.049Z,14.80
2022-12-27T13:47:04.947Z,14.80
2022-12-27T13:51:37.114Z,14.80
2022-12-27T13:55:53.887Z,14.90
2022-12-27T14:00:18.414Z,14.80
2022-12-27T14:04:42.353Z,14.80
2022-12-27T14:09:15.628Z,14.80
2022-12-27T14:13:41.906Z,14.90
2022-12-27T14:17:46.380Z,14.80
2022-12-27T14:22:09.081Z,14.90
2022-12-27T14:27:15.031Z,14.90
2022-12-27T14:31:47.737Z,14.90
2022-12-27T14:36:08.147Z,14.90
2022-12-27T14:40:40.576Z,14.90
2022-12-27T14:45:16.482Z,14.80
2022-12-27T14:49:41.067Z,14.80
2022-12-27T14:53:57.091Z,14.80
2022-12-27T14:58:29.573Z,14.80
2022-12-27T15:02:59.720Z,14.80
2022-12-27T15:07:31.186Z,14.80
2022-12-27T15:12:14.825Z,14.80
2022-12-27T15:16:25.036Z,14.90
2022-12-27T15:20:47.256Z,14.90
2022-12-27T15:25:23.380Z,14.90
2022-12-27T15:29:58.485Z,14.90
2022-12-27T15:34:54.698Z,14.90
2022-12-27T15:38:56.639Z,14.90
2022-12-27T15:43:25.018Z,14.90
2022-12-27T15:47:58.750Z,14.90
2022-12-27T15:52:15.611Z,14.90
2022-12-27T15:56:36.280Z,14.90
2022-12-27T16:00:38.527Z,14.90
2022-12-27T16:04:53.616Z,15.00
2022-12-27T16:09:30.483Z,14.90
2022-12-27T16:13:43.360Z,14.90
2022-12-27T16:17:55.026Z,14.90
2022-12-27T16:21:56.848Z,14.90
2022-12-27T16:26:10.442Z,14.90
2022-12-27T16:30:12.671Z,14.90
2022-12-27T16:34:25.531Z,14.90
2022-12-27T16:38:32.490Z,14.90
2022-12-27T16:42:48.965Z,14.90
2022-12-27T16:46:56.982Z,14.90
2022-12-27T16:51:08.190Z,14.90
2022-12-27T16:55:45.394Z,14.90
2022-12-27T17:00:31.920Z,14.90
2022-12-27T17:04:54.926Z,14.90
2022-12-27T17:09:08.668Z,14.90
2022-12-27T17:13:42.764Z,14.90
2022-12-27T17:17:46.570Z,14.90
2022-12-27T17:21:56.699Z,14.90
2022-12-27T17:26:14.006Z,14.90
2022-12-27T17:30:44.959Z,14.90
2022-12-27T17:34:57.873Z,14.90
2022-12-27T17:39:11.224Z,14.90
2022-12-27T17:44:11.641Z,14.90
2022-12-27T17:48:24.992Z,14.90
2022-12-27T17:52:45.836Z,14.90
2022-12-27T17:57:18.449Z,14.90
2022-12-27T18:01:20.330Z,14.90
2022-12-27T18:05:30.805Z,14.90
2022-12-27T18:09:51.948Z,14.90
2022-12-27T18:13:56.646Z,14.90
2022-12-27T18:18:10.195Z,14.90
2022-12-27T18:22:19.153Z,14.90
2022-12-27T18:26:39.587Z,14.90
2022-12-27T18:30:59.787Z,14.90
2022-12-27T18:35:03.047Z,14.90
2022-12-27T18:39:30.808Z,14.90
2022-12-27T18:43:34.196Z,14.90
2022-12-27T18:47:45.488Z,14.90
2022-12-27T18:51:47.174Z,14.90
2022-12-27T18:56:07.176Z,14.90
2022-12-27T19:00:22.317Z,14.90
2022-12-27T19:04:32.143Z,14.90
2022-12-27T19:08:44.140Z,14.90
2022-12-27T19:12:47.093Z,14.90
2022-12-27T19:16:55.945Z,14.90
2022-12-27T19:21:02.600Z,14.90
2022-12-27T19:25:26.305Z,14.90
2022-12-27T19:29:31.386Z,14.90
2022-12-27T19:33:35.651Z,14.90
2022-12-27T19:37:37.325Z,14.90
2022-12-27T19:41:39.380Z,14.90
2022-12-27T19:45:41.039Z,14.90
2022-12-27T19:49:44.538Z,14.90
2022-12-27T19:53:57.341Z,14.90
2022-12-27T19:57:59.469Z,14.90
2022-12-27T20:02:01.287Z,14.90
2022-12-27T20:06:12.444Z,14.90
2022-12-27T20:10:17.649Z,14.90
2022-12-27T20:14:19.433Z,14.90
2022-12-27T20:18:21.629Z,14.90
2022-12-27T20:22:23.277Z,14.90
2022-12-27T20:26:25.633Z,14.90
2022-12-27T20:30:27.430Z,14.90
2022-12-27T20:34:29.039Z,14.90
2022-12-27T20:38:31.324Z,14.90
2022-12-27T20:42:33.316Z,14.90
2022-12-27T20:46:35.246Z,14.90
2022-12-27T20:50:38.138Z,14.90
2022-12-27T20:54:40.070Z,14.90
2022-12-27T20:58:41.743Z,14.90
2022-12-27T21:02:43.472Z,14.90
2022-12-27T21:06:45.498Z,14.90
2022-12-27T21:10:47.139Z,14.90
2022-12-27T21:14:50.019Z,14.90
2022-12-27T21:18:52.561Z,14.90
2022-12-27T21:22:54.148Z,14.90
2022-12-27T21:26:56.714Z,14.90
2022-12-27T21:30:58.840Z,14.90
2022-12-27T21:35:00.673Z,14.90
2022-12-27T21:39:03.192Z,14.90
2022-12-27T21:43:04.804Z,14.90
2022-12-27T21:47:06.664Z,14.80
2022-12-27T21:51:12.093Z,14.80
2022-12-27T21:55:13.756Z,14.80
2022-12-27T21:59:15.495Z,14.80
2022-12-27T22:03:17.379Z,14.80
2022-12-27T22:07:19.110Z,14.80
2022-12-27T22:11:22.349Z,14.80
2022-12-27T22:15:24.087Z,14.80
2022-12-27T22:19:27.625Z,14.80
2022-12-27T22:23:38.680Z,14.80
2022-12-27T22:27:40.339Z,14.80
2022-12-27T22:31:43.008Z,14.80
2022-12-27T22:35:44.837Z,14.80
2022-12-27T22:39:46.797Z,14.80
2022-12-27T22:43:51.304Z,14.80
2022-12-27T22:47:53.161Z,14.80
2022-12-27T22:52:00.096Z,14.80
2022-12-27T22:56:01.731Z,14.80
2022-12-27T23:00:06.485Z,14.80
2022-12-27T23:04:10.743Z,14.80
2022-12-27T23:08:12.478Z,14.80
2022-12-27T23:12:14.204Z,14.80
2022-12-27T23:16:15.949Z,14.80
2022-12-27T23:20:17.751Z,14.80
2022-12-27T23:24:19.577Z,14.80
2022-12-27T23:28:23.727Z,14.80
2022-12-27T23:32:25.352Z,14.80
2022-12-27T23:36:27.085Z,14.80
2022-12-27T23:40:29.315Z,14.80
2022-12-27T23:44:33.946Z,14.80
2022-12-27T23:48:36.335Z,14.80
2022-12-27T23:52:37.976Z,14.80
2022-12-27T23:56:39.682Z,14.80
